• Join FlightAware (Why Join?)
  • Login
  • US Flag 
02:21PM EDT


 

Airport Tracker/Info


-or-


 

Live Flight TrackerFlight Track Log ✈ DAL6032 ✈ 21-Apr-2013 ✈ KMEM - KCMH

Flight Track Log - Related Links

Times and Time Zones

All times are in EDT time to prevent confusion due to time zone crossing. See the DAL6032 flight status page for this flight to view local times or setup timezone preferences in your user account.

Time Position Orientation Groundspeed Altitude Reporting Facility
EDT Latitude Longitude Course Direction KTS MPH feet Rate Location/Type
09:00PM 35.0500 -89.9667 73° East 162 186 900  Level KMEM
09:00PM 35.0667 -89.9667 360° North 164 189 1,600 1,680 Climbing KMEM
09:01PM 35.1167 -89.9500 15° North 228 262 3,100 2,100 Climbing KMEM
09:02PM 35.1333 -89.8667 76° East 249 287 5,800 2,460 Climbing KMEM
09:03PM 35.1518 -89.4632 72° East  Level FlightAware Approximate
09:03PM 35.1500 -89.7833 76° East 265 305 8,200  Level KMEM
09:04PM 35.1852 -89.3386 72° East  Level FlightAware Approximate
09:05PM 35.2175 -89.2134 73° East  Level FlightAware Approximate
09:05PM 35.1742 -89.6433 78° East 304 350 10,900  Level Memphis Center
09:06PM 35.1922 -89.5289 79° East 328 377 11,900 1,140 Climbing Memphis Center
09:07PM 35.2081 -89.3914 82° East 356 410 13,200 1,260 Climbing Memphis Center
09:08PM 35.2550 -89.2764 63° Northeast 368 423 14,500 1,380 Climbing Memphis Center
09:09PM 35.3208 -89.1739 52° Northeast 368 423 16,000 1,440 Climbing Memphis Center
09:10PM 35.3844 -89.0683 54° Northeast 381 438 17,400 1,200 Climbing Memphis Center
09:11PM 35.4500 -88.9603 53° Northeast 388 447 18,400 1,140 Climbing Memphis Center
09:12PM 35.5156 -88.8522 53° Northeast 388 447 19,700 1,200 Climbing Memphis Center
09:13PM 35.5747 -88.7542 53° Northeast 388 447 20,900 1,260 Climbing Memphis Center
09:14PM 35.6419 -88.6428 53° Northeast 388 447 22,300 1,380 Climbing Memphis Center
09:15PM 35.7092 -88.5289 54° Northeast 393 452 23,700 1,380 Climbing Memphis Center
09:16PM 35.7783 -88.4175 53° Northeast 398 458 25,100 1,380 Climbing Memphis Center
09:17PM 35.8456 -88.3033 54° Northeast 398 458 26,500 1,320 Climbing Memphis Center
09:18PM 35.9144 -88.1939 52° Northeast 398 458 27,800 1,320 Climbing Memphis Center
09:19PM 35.9792 -88.0844 54° Northeast 398 458 29,200 1,320 Climbing Memphis Center
09:20PM 36.0439 -87.9747 54° Northeast 392 451 30,500 900 Climbing Memphis Center
09:21PM 36.1164 -87.8492 54° Northeast 392 451 31,000 240 Climbing Memphis Center
09:22PM 36.1911 -87.7261 53° Northeast 422 486 31,000  Level Memphis Center
09:23PM 36.2675 -87.5950 54° Northeast 452 520 31,000  Level Memphis Center
09:24PM 36.3417 -87.4661 54° Northeast 459 528 31,000  Level Memphis Center
09:25PM 36.4158 -87.3372 54° Northeast 459 528 31,000  Level Memphis Center
09:26PM 36.4917 -87.2078 54° Northeast 459 528 31,000  Level Memphis Center
09:27PM 36.5597 -87.0942 53° Northeast 459 528 31,000  Level Memphis Center
09:28PM 36.6375 -86.9644 53° Northeast 459 528 31,000  Level Memphis Center
09:29PM 36.7328 -86.8669 39° Northeast 447 514 31,000  Level Memphis Center
09:30PM 36.8364 -86.7744 36° Northeast 447 514 31,000  Level Memphis Center
09:31PM 36.9481 -86.6733 36° Northeast 447 514 31,000  Level Memphis Center
09:32PM 37.0472 -86.5806 37° Northeast 442 509 31,000  Level Memphis Center
09:33PM 37.2253 -86.4147 37° Northeast 447 514 31,000  Level Indianapolis Center
09:34PM 37.3275 -86.3208 36° Northeast 450 518 31,000  Level Indianapolis Center
09:36PM 37.4297 -86.2239 37° Northeast 454 522 31,000  Level Indianapolis Center
09:37PM 37.5306 -86.1303 36° Northeast 448 516 31,000  Level Indianapolis Center
09:38PM 37.6367 -86.0308 37° Northeast 456 525 31,000  Level Indianapolis Center
09:39PM 37.7383 -85.9361 36° Northeast 454 522 31,000  Level Indianapolis Center
09:40PM 37.8403 -85.8394 37° Northeast 457 526 31,000  Level Indianapolis Center
09:41PM 37.9422 -85.7431 37° Northeast 458 527 31,000  Level Indianapolis Center
09:42PM 38.0442 -85.6453 37° Northeast 459 528 31,000  Level Indianapolis Center
09:43PM 38.1469 -85.5486 36° Northeast 460 529 31,000  Level Indianapolis Center
09:44PM 38.2489 -85.4506 37° Northeast 460 529 31,000  Level Indianapolis Center
09:45PM 38.3503 -85.3519 37° Northeast 458 527 31,000  Level Indianapolis Center
09:46PM 38.4525 -85.2553 37° Northeast 458 527 31,000 -840 Level Indianapolis Center
09:47PM 38.5614 -85.1475 38° Northeast 450 518 29,400 -1,800 Descending Indianapolis Center
09:48PM 38.6719 -85.0394 37° Northeast 455 524 27,400 -1,920 Descending Indianapolis Center
09:49PM 38.7756 -84.9389 37° Northeast 464 534 25,600 -1,500 Descending Indianapolis Center
09:50PM 38.8656 -84.8506 37° Northeast 453 521 24,400 -840 Descending Indianapolis Center
09:51PM 38.9750 -84.7442 37° Northeast 439 505 24,000 -240 Descending Indianapolis Center
09:52PM 39.0581 -84.6283 47° Northeast 437 503 24,000 -180 Level Indianapolis Center
09:53PM 39.1300 -84.4953 55° Northeast 449 517 23,700 -840 Descending Indianapolis Center
09:54PM 39.2033 -84.3644 54° Northeast 447 514 22,300 -1,440 Descending Indianapolis Center
09:55PM 39.2733 -84.2367 55° Northeast 435 501 20,800 -1,680 Descending Indianapolis Center
09:56PM 39.3311 -84.1033 61° Northeast 424 488 19,000 -1,680 Descending Indianapolis Center
09:57PM 39.3814 -83.9719 64° Northeast 408 470 17,400 -1,740 Descending Indianapolis Center
09:58PM 39.4306 -83.8439 64° Northeast 398 458 15,500 -1,920 Descending Indianapolis Center
09:59PM 39.4778 -83.7175 64° Northeast 390 449 13,500 -2,040 Descending Indianapolis Center
10:00PM 39.5167 -83.6203 63° Northeast 377 434 12,000 -1,920 Descending Indianapolis Center
10:00PM 39.5250 -83.5961 66° East 377 434 11,600 -1,140 Descending Indianapolis Center
10:01PM 39.5583 -83.5117 63° Northeast 365 420 11,000 -600 Descending Indianapolis Center
10:01PM 39.5697 -83.4778 66° East 368 423 11,000 60 Level Indianapolis Center
10:02PM 39.6239 -83.4142 42° Northeast 366 421 11,100  Climbing Indianapolis Center
10:02PM 39.6472 -83.3903 38° Northeast 369 425 11,000 -300 Descending Indianapolis Center
10:03PM 39.7164 -83.3250 36° Northeast 370 426 10,800 -420 Descending Indianapolis Center
10:03PM 39.7281 -83.3094 46° Northeast 368 423 10,600 -840 Descending Indianapolis Center
10:04PM 39.7953 -83.2447 36° Northeast 340 391 10,000 -600 Descending Indianapolis Center
10:04PM 39.8139 -83.2247 40° Northeast 322 371 10,000 -1,620 Level Indianapolis Center
10:05PM 39.8561 -83.1842 36° Northeast 264 304 8,400 -2,580 Descending Indianapolis Center
10:05PM 39.8739 -83.1650 40° Northeast 272 313 7,400 -2,880 Descending Indianapolis Center
10:06PM 39.9164 -83.1286 33° Northeast 261 300 5,500 -2,580 Descending Indianapolis Center
10:06PM 39.9350 -83.1117 35° Northeast 265 305 4,800 -2,040 Descending Indianapolis Center
10:07PM 39.9803 -83.0844 25° Northeast 260 299 3,500 -1,680 Descending Indianapolis Center
10:07PM 40.0003 -83.0714 27° Northeast 261 300 3,100 -900 Descending Indianapolis Center
10:08PM 40.0092 -83.0281 75° East 201 231 2,700 -840 Descending Indianapolis Center
10:08PM 40.0083 -83.0003 92° East 215 247 2,300 -960 Descending Indianapolis Center